Time;durP1;ratioP1;P1;durP2;ratioP2;P2;SDS_P1;SDS_P2;PMS_P1;PMS_P2;Temp;Humidity;BMP_temperature;BMP_pressure;BME280_temperature;BME280_humidity;BME280_pressure;Samples;Min_cycle;Max_cycle;Signal;HPM_P1;HPM_P2
2022/06/08 00:00:09;;;;;;;1.25;1.15;;;23.10;43.40;;;27.01;28.72;100770.66;5093929;28;20483;-20
2022/06/08 00:02:39;;;;;;;1.50;1.40;;;23.10;43.40;;;27.03;28.42;100766.03;5111780;28;20487;-21
2022/06/08 00:05:06;;;;;;;1.52;1.42;;;23.10;43.40;;;26.97;28.61;100756.69;5113505;28;20395;-21
2022/06/08 00:07:32;;;;;;;1.50;1.40;;;23.10;43.40;;;27.02;28.44;100763.50;5113389;28;20051;-21
2022/06/08 00:09:59;;;;;;;1.83;1.50;;;23.10;43.40;;;26.99;28.46;100762.75;5113284;28;20399;-21
2022/06/08 00:12:25;;;;;;;1.30;1.20;;;23.10;43.40;;;27.01;28.56;100759.09;5113396;28;20055;-21
2022/06/08 00:14:51;;;;;;;1.60;1.50;;;23.10;43.40;;;26.96;28.37;100748.78;5113353;28;20051;-21
2022/06/08 00:17:18;;;;;;;1.60;1.50;;;23.10;43.40;;;26.96;28.33;100749.63;5113021;28;20075;-21
2022/06/08 00:19:44;;;;;;;1.30;1.20;;;23.10;43.40;;;26.98;28.71;100752.16;5113074;28;20048;-21
2022/06/08 00:22:11;;;;;;;1.25;1.15;;;23.10;43.40;;;27.01;28.69;100756.41;5092973;28;20052;-21
2022/06/08 00:24:38;;;;;;;1.60;1.40;;;23.10;43.40;;;26.99;28.61;100748.50;5113113;28;20071;-21
2022/06/08 00:27:04;;;;;;;1.50;1.40;;;23.10;43.40;;;26.95;28.46;100737.19;5113144;28;20054;-21
2022/06/08 00:29:31;;;;;;;1.63;1.17;;;23.10;43.40;;;26.99;28.47;100745.81;5112968;28;20108;-21
2022/06/08 00:31:57;;;;;;;2.65;1.30;;;23.10;43.40;;;26.98;28.32;100744.97;5094749;28;20467;-21
2022/06/08 00:34:23;;;;;;;1.48;1.38;;;23.10;43.50;;;26.97;28.63;100737.06;5113313;28;20119;-21
2022/06/08 00:36:49;;;;;;;1.65;1.30;;;23.10;43.40;;;26.94;28.58;100730.13;5094691;28;20043;-21
2022/06/08 00:39:14;;;;;;;1.40;1.30;;;23.10;43.40;;;26.97;28.72;100732.53;5113257;28;20093;-20
2022/06/08 00:41:47;;;;;;;1.80;1.50;;;23.10;43.40;;;26.96;28.37;100728.19;5112824;28;20044;-21
2022/06/08 00:44:40;;;;;;;1.50;1.40;;;23.10;43.50;;;26.95;28.63;100731.84;5077994;28;20051;-21
2022/06/08 00:47:10;;;;;;;2.35;1.55;;;23.10;43.40;;;26.96;28.56;100730.84;5094490;28;20058;-21
2022/06/08 00:49:43;;;;;;;1.50;1.40;;;23.10;43.40;;;26.93;28.38;100725.75;5112122;28;20377;-21
2022/06/08 00:52:09;;;;;;;1.42;1.33;;;23.10;43.50;;;26.97;28.56;100731.69;5092499;28;20052;-20
2022/06/08 00:54:40;;;;;;;1.40;1.30;;;23.10;43.40;;;26.95;28.42;100734.50;5094749;28;20040;-21
2022/06/08 00:57:26;;;;;;;1.00;0.90;;;23.10;43.50;;;26.99;28.61;100733.25;5094228;28;20089;-21
2022/06/08 01:00:06;;;;;;;1.40;1.30;;;23.10;43.40;;;26.95;28.48;100725.63;5093929;28;20400;-23
2022/06/08 01:02:32;;;;;;;1.38;1.30;;;23.10;43.40;;;26.97;28.39;100724.50;5094175;28;20040;-21
2022/06/08 01:05:44;;;;;;;1.38;1.27;;;23.10;43.40;;;26.93;28.47;100714.16;5112396;28;20044;-21
2022/06/08 01:08:26;;;;;;;;;;;23.10;43.40;;;27.08;28.36;100719.97;5094865;28;20036;-21
2022/06/08 01:11:00;;;;;;;1.52;1.42;;;23.10;43.50;;;26.96;28.44;100722.81;5094548;28;19924;-21
2022/06/08 01:13:33;;;;;;;2.05;1.50;;;23.10;43.40;;;26.92;28.43;100721.38;5094641;28;20456;-21
2022/06/08 01:16:06;;;;;;;2.53;1.48;;;23.10;43.40;;;26.94;28.60;100723.91;5098409;28;20097;-22
2022/06/08 01:18:34;;;;;;;1.38;1.23;;;23.00;43.40;;;26.92;28.72;100723.22;5097777;28;20043;-21
2022/06/08 01:21:22;;;;;;;1.50;1.40;;;23.00;43.40;;;26.92;28.49;100721.38;5116280;28;20052;-21
2022/06/08 01:24:00;;;;;;;1.20;1.10;;;23.00;43.40;;;26.92;28.66;100720.53;5064865;28;20043;-21
2022/06/08 01:26:57;;;;;;;1.52;1.42;;;23.00;43.40;;;26.93;28.71;100727.56;5097328;28;20044;-21
2022/06/08 01:29:40;;;;;;;1.67;1.35;;;23.00;43.40;;;26.92;28.55;100724.06;5096452;28;20048;-19
2022/06/08 01:32:20;;;;;;;1.40;1.30;;;23.00;43.40;;;26.87;28.64;100718.25;5096417;28;20047;-21
2022/06/08 01:35:03;;;;;;;1.30;1.20;;;23.00;43.40;;;26.91;28.49;100724.19;5097180;28;20105;-21
2022/06/08 01:38:21;;;;;;;1.50;1.40;;;23.00;43.40;;;26.87;28.80;100718.25;5097367;28;20407;-20
2022/06/08 01:41:19;;;;;;;2.03;1.58;;;23.00;43.50;;;26.91;28.61;100718.81;5097209;28;20139;-20
2022/06/08 01:44:03;;;;;;;1.33;1.23;;;23.00;43.50;;;26.90;28.44;100725.19;5079670;28;20057;-21
2022/06/08 01:46:33;;;;;;;1.60;1.50;;;23.00;43.50;;;26.89;28.71;100721.63;5114576;28;20100;-21
2022/06/08 01:49:39;;;;;;;1.52;1.33;;;23.00;43.50;;;26.89;28.38;100710.06;5097370;28;20043;-21
2022/06/08 01:52:31;;;;;;;2.60;1.40;;;23.00;43.50;;;26.88;28.48;100717.28;5115565;28;20047;-21
2022/06/08 01:55:18;;;;;;;1.40;1.30;;;23.00;43.50;;;26.88;28.68;100708.38;5079471;28;20478;-21
2022/06/08 01:57:58;;;;;;;1.40;1.30;;;23.00;43.50;;;26.88;28.40;100706.56;5079424;28;20404;-21
2022/06/08 02:00:32;;;;;;;1.30;1.20;;;23.00;43.50;;;26.84;28.62;100694.38;5114112;28;20048;-21
2022/06/08 02:03:25;;;;;;;1.40;1.30;;;23.00;43.50;;;26.83;28.64;100684.66;5080424;28;20043;-22
2022/06/08 02:06:17;;;;;;;1.60;1.50;;;23.00;43.50;;;26.87;28.50;100691.44;5097018;28;20420;-21
2022/06/08 02:09:09;;;;;;;1.20;1.10;;;23.00;43.50;;;26.88;28.72;100689.59;5095214;28;20127;-21
2022/06/08 02:11:54;;;;;;;1.30;1.20;;;23.00;43.50;;;26.83;28.66;100681.97;5096951;28;20044;-21
2022/06/08 02:14:29;;;;;;;1.27;1.17;;;23.00;43.50;;;26.85;28.64;100685.34;5096872;28;20143;-20
2022/06/08 02:17:21;;;;;;;1.50;1.40;;;23.00;43.50;;;26.82;28.66;100682.94;5080217;28;20047;-21
2022/06/08 02:20:11;;;;;;;1.50;1.40;;;23.00;43.50;;;26.83;28.42;100675.75;5078548;28;20041;-21
2022/06/08 02:22:48;;;;;;;;;;;23.00;43.50;;;26.97;28.23;100672.66;5097741;28;20040;-21
2022/06/08 02:25:27;;;;;;;1.23;1.15;;;23.00;43.50;;;26.90;28.72;100663.50;5097148;28;20075;-21
2022/06/08 02:28:12;;;;;;;1.35;1.25;;;23.00;43.50;;;26.86;28.53;100665.56;5097003;28;20053;-22
2022/06/08 02:30:48;;;;;;;1.23;1.15;;;23.00;43.50;;;26.83;28.54;100667.69;5095221;28;20056;-21
2022/06/08 02:36:41;;;;;;;2.17;1.13;;;23.00;43.50;;;26.86;28.42;100673.63;5099625;28;20134;-21
2022/06/08 02:39:25;;;;;;;1.45;1.35;;;23.00;43.50;;;26.82;28.65;100666.84;5114786;28;20047;-21
2022/06/08 02:42:00;;;;;;;1.48;1.38;;;23.00;43.50;;;26.83;28.77;100673.94;5096238;28;20048;-21
2022/06/08 02:44:30;;;;;;;1.45;1.35;;;23.00;43.50;;;26.85;28.35;100673.75;5095890;28;20146;-21
2022/06/08 02:47:29;;;;;;;1.33;1.23;;;23.00;43.50;;;26.85;28.72;100671.94;5079457;28;20490;-22
2022/06/08 02:50:00;;;;;;;1.40;1.30;;;23.00;43.50;;;26.83;28.62;100667.69;5112071;28;20155;-21
2022/06/08 02:52:28;;;;;;;1.30;1.20;;;23.00;43.50;;;26.82;28.52;100666.84;5095962;28;20050;-20
2022/06/08 02:54:57;;;;;;;1.60;1.50;;;23.00;43.50;;;26.84;28.49;100666.72;5094819;28;20143;-21
2022/06/08 02:57:30;;;;;;;1.25;1.15;;;23.00;43.50;;;26.85;28.69;100671.94;5094056;28;20048;-21
2022/06/08 03:00:15;;;;;;;1.50;1.40;;;23.00;43.50;;;26.80;28.46;100664.31;5111461;28;20043;-21
2022/06/08 03:02:54;;;;;;;1.58;1.35;;;23.00;43.50;;;26.82;28.62;100663.34;5113204;28;20514;-21
2022/06/08 03:05:28;;;;;;;1.42;1.33;;;23.00;43.50;;;26.83;28.62;100673.94;5095546;28;20062;-21
2022/06/08 03:08:21;;;;;;;1.58;1.48;;;23.00;43.50;;;26.84;28.74;100672.09;5113363;28;20051;-21
2022/06/08 03:10:49;;;;;;;1.38;1.27;;;23.00;43.40;;;26.85;28.71;100671.06;5089389;28;20101;-21
2022/06/08 03:13:32;;;;;;;1.50;1.40;;;23.00;43.40;;;26.87;28.44;100674.50;5112847;28;20113;-21
2022/06/08 03:16:04;;;;;;;1.48;1.38;;;23.00;43.40;;;26.88;28.48;100671.69;5079585;28;20058;-21
2022/06/08 03:18:31;;;;;;;1.60;1.50;;;23.00;43.30;;;26.90;28.56;100671.53;5111745;28;20130;-21
2022/06/08 03:21:00;;;;;;;1.50;1.40;;;23.10;43.30;;;26.89;28.49;100670.66;5095683;28;20054;-20
2022/06/08 03:23:30;;;;;;;1.17;1.17;;;23.00;43.20;;;26.90;28.58;100666.16;5095952;28;20043;-21
2022/06/08 03:25:57;;;;;;;1.40;1.30;;;23.10;43.20;;;26.93;28.45;100671.22;5095730;28;20458;-21
2022/06/08 03:28:22;;;;;;;1.25;1.15;;;23.10;43.20;;;26.94;28.63;100673.78;5114160;28;20130;-21
2022/06/08 03:30:51;;;;;;;1.45;1.35;;;23.20;43.20;;;26.95;28.46;100667.44;5096180;28;20189;-21
2022/06/08 03:33:17;;;;;;;1.45;1.35;;;23.10;43.10;;;27.02;28.37;100672.25;5094356;28;20139;-21
2022/06/08 03:35:42;;;;;;;1.60;1.50;;;23.20;43.10;;;27.00;28.52;100669.72;5113923;28;20047;-21
2022/06/08 03:38:09;;;;;;;1.42;1.33;;;23.20;43.00;;;27.01;28.51;100666.03;5113050;28;20047;-21
2022/06/08 03:40:38;;;;;;;1.40;1.30;;;23.20;43.00;;;27.07;28.57;100673.53;5095505;28;20051;-21
2022/06/08 03:43:04;;;;;;;1.27;1.17;;;23.30;43.00;;;27.07;28.30;100670.00;5094273;28;20052;-21
2022/06/08 03:45:55;;;;;;;1.52;1.42;;;23.30;42.90;;;27.11;28.58;100677.59;5096002;28;20144;-21
2022/06/08 03:48:21;;;;;;;1.38;1.27;;;23.30;42.90;;;27.17;28.16;100676.22;5111592;28;20043;-21
2022/06/08 03:50:51;;;;;;;1.55;1.40;;;23.30;42.90;;;27.14;28.10;100673.81;5113757;28;20036;-21
2022/06/08 03:53:23;;;;;;;1.27;1.17;;;23.40;42.90;;;27.17;28.26;100669.00;5094199;28;20174;-21
2022/06/08 03:55:51;;;;;;;1.40;1.30;;;23.50;42.80;;;27.22;28.30;100670.44;5095231;28;20100;-20
2022/06/08 03:58:18;;;;;;;1.35;1.25;;;23.50;42.60;;;27.26;28.21;100677.22;5093214;28;20048;-21
2022/06/08 04:00:46;;;;;;;3.00;1.40;;;23.60;42.60;;;27.28;28.07;100669.84;5095060;28;20082;-20
2022/06/08 04:03:16;;;;;;;1.30;1.20;;;23.70;42.50;;;27.33;28.23;100662.25;5095109;28;20475;-21
2022/06/08 04:05:44;;;;;;;1.27;1.17;;;23.70;42.40;;;27.37;28.13;100669.03;5095451;28;20040;-21
2022/06/08 04:08:15;;;;;;;1.60;1.15;;;23.70;42.40;;;27.40;27.88;100658.03;5111360;28;20476;-21
2022/06/08 04:10:47;;;;;;;1.73;1.55;;;23.80;42.30;;;27.43;28.28;100659.56;5095608;28;20146;-22
2022/06/08 04:13:13;;;;;;;1.20;1.10;;;23.80;42.30;;;27.45;28.02;100661.13;5078260;28;20131;-22
2022/06/08 04:15:42;;;;;;;1.45;1.35;;;23.90;42.30;;;27.51;28.18;100673.13;5095234;28;20395;-21
2022/06/08 04:18:20;;;;;;;1.00;1.00;;;23.90;42.20;;;27.49;28.23;100667.06;5093837;28;20048;-21
2022/06/08 04:20:55;;;;;;;1.10;1.00;;;23.90;42.20;;;27.56;28.20;100678.06;5112292;28;20390;-21
2022/06/08 04:23:25;;;;;;;1.27;1.17;;;24.00;42.10;;;27.56;28.23;100676.22;5092922;28;20499;-21
2022/06/08 04:25:52;;;;;;;1.45;1.35;;;24.00;42.10;;;27.62;27.82;100686.41;5112194;28;20479;-21
2022/06/08 04:28:19;;;;;;;1.40;1.30;;;24.00;42.00;;;27.63;28.12;100666.63;5094164;28;20435;-21
2022/06/08 04:30:48;;;;;;;1.45;1.33;;;24.10;42.00;;;27.67;27.79;100670.72;5094804;28;20233;-22
2022/06/08 04:33:16;;;;;;;1.20;1.10;;;24.10;41.90;;;27.70;27.80;100673.13;5113005;28;20048;-21
2022/06/08 04:35:43;;;;;;;1.48;1.33;;;24.10;41.80;;;27.74;27.63;100665.59;5094737;28;20389;-21
2022/06/08 04:38:11;;;;;;;1.70;1.60;;;24.20;41.90;;;27.76;27.80;100673.53;5111368;28;20512;-21
2022/06/08 04:40:40;;;;;;;1.65;1.40;;;24.20;41.90;;;27.80;28.02;100673.09;5094624;28;20204;-21
2022/06/08 04:43:06;;;;;;;1.45;1.35;;;24.20;41.90;;;27.83;27.80;100682.69;5111506;28;20049;-21
2022/06/08 04:45:35;;;;;;;1.20;1.10;;;24.20;41.90;;;27.87;27.97;100679.56;5112767;28;20047;-21
2022/06/08 04:48:06;;;;;;;1.40;1.30;;;24.20;41.80;;;27.92;27.53;100684.53;5094062;28;20055;-22
2022/06/08 04:50:33;;;;;;;1.85;1.42;;;24.20;41.80;;;27.89;27.79;100690.19;5114695;28;20388;-21
2022/06/08 04:53:00;;;;;;;1.92;1.15;;;24.30;41.90;;;27.96;27.93;100698.53;5115181;28;20043;-21
2022/06/08 04:55:27;;;;;;;1.48;1.38;;;24.30;41.80;;;27.96;27.76;100695.84;5115626;28;20043;-21
2022/06/08 04:57:53;;;;;;;1.40;1.30;;;24.30;41.70;;;28.02;27.78;100703.34;5097968;28;20100;-22
2022/06/08 05:00:21;;;;;;;1.42;1.33;;;24.40;41.70;;;28.02;27.51;100684.53;5114487;28;20050;-20
2022/06/08 05:02:50;;;;;;;1.60;1.42;;;24.40;41.60;;;28.05;27.69;100674.34;5098379;28;20040;-21
2022/06/08 05:05:36;;;;;;;1.35;1.15;;;24.50;41.50;;;28.11;27.44;100682.81;5115225;28;20055;-21
2022/06/08 05:08:07;;;;;;;1.30;1.20;;;24.50;41.40;;;28.12;27.56;100679.09;5116209;28;20052;-21
2022/06/08 05:10:36;;;;;;;;;;;24.50;41.40;;;28.31;27.20;100678.19;5098241;28;20059;-22
2022/06/08 05:13:06;;;;;;;1.38;1.30;;;24.60;41.40;;;28.22;27.22;100686.16;5113647;28;20346;-21
2022/06/08 05:15:37;;;;;;;1.38;1.27;;;24.60;41.30;;;28.25;27.28;100688.56;5097512;28;20548;-22
2022/06/08 05:18:05;;;;;;;1.90;1.45;;;24.70;41.30;;;28.25;27.36;100683.19;5116109;28;20060;-21
2022/06/08 05:20:33;;;;;;;1.67;1.30;;;24.60;41.30;;;28.23;27.43;100685.19;5116053;28;20051;-21
2022/06/08 05:23:01;;;;;;;1.15;1.05;;;24.60;41.30;;;28.24;27.03;100683.31;5114987;28;20039;-21
2022/06/08 05:25:33;;;;;;;1.77;1.40;;;24.60;41.20;;;28.28;27.57;100688.25;5097613;28;20048;-21
2022/06/08 05:28:01;;;;;;;1.35;1.25;;;24.70;41.30;;;28.33;27.27;100686.97;5116090;28;20055;-21
2022/06/08 05:30:29;;;;;;;2.33;1.40;;;24.70;41.20;;;28.34;27.02;100675.22;5112687;28;20185;-21
2022/06/08 05:32:55;;;;;;;1.33;1.20;;;24.70;41.10;;;28.36;27.04;100682.13;5097064;28;20083;-21
2022/06/08 05:35:24;;;;;;;1.60;1.20;;;24.70;41.10;;;28.38;27.33;100690.88;5115000;28;20138;-22
2022/06/08 05:37:51;;;;;;;1.65;1.40;;;24.70;41.10;;;28.40;27.29;100683.53;5114673;28;20452;-21
2022/06/08 05:40:21;;;;;;;1.30;1.20;;;24.70;41.10;;;28.40;27.09;100693.44;5095911;28;20048;-21
2022/06/08 05:42:47;;;;;;;1.30;1.20;;;24.70;41.10;;;28.34;27.15;100673.38;5115578;28;20055;-21
2022/06/08 05:45:21;;;;;;;1.65;1.50;;;24.70;41.10;;;28.39;27.03;100681.00;5097086;28;20423;-21
2022/06/08 05:47:48;;;;;;;1.40;1.30;;;24.70;41.10;;;28.44;26.94;100686.78;5097194;28;20048;-21
2022/06/08 05:50:14;;;;;;;1.42;1.27;;;24.70;41.10;;;28.38;27.37;100682.81;5097041;28;20055;-21
2022/06/08 05:52:40;;;;;;;1.30;1.20;;;24.70;41.20;;;28.39;27.20;100694.44;5097637;28;20051;-21
2022/06/08 05:55:09;;;;;;;1.67;1.27;;;24.60;41.20;;;28.34;27.31;100683.28;5097449;28;20036;-21
2022/06/08 05:57:36;;;;;;;1.30;1.20;;;24.60;41.90;;;28.32;27.19;100683.44;5095579;28;20044;-21
2022/06/08 06:00:16;;;;;;;1.27;1.17;;;24.50;41.30;;;28.28;27.23;100674.81;5096432;28;20047;-20
2022/06/08 06:02:43;;;;;;;1.33;1.23;;;24.50;41.40;;;28.25;27.16;100680.50;5115474;28;20147;-21
2022/06/08 06:05:14;;;;;;;1.30;1.20;;;24.40;41.50;;;28.28;27.08;100692.78;5097019;28;20088;-21
2022/06/08 06:07:42;;;;;;;1.40;1.25;;;24.40;41.60;;;28.27;27.35;100678.50;5114924;28;20047;-20
2022/06/08 06:10:39;;;;;;;1.30;1.20;;;24.40;41.60;;;28.24;27.29;100684.16;5108143;28;20071;-21
2022/06/08 06:13:06;;;;;;;1.55;1.45;;;24.40;41.60;;;28.24;26.99;100673.41;5114773;28;20083;-21
2022/06/08 06:16:05;;;;;;;1.48;1.20;;;24.40;41.60;;;28.22;27.08;100674.56;5106999;28;20058;-21
2022/06/08 06:18:33;;;;;;;1.50;1.35;;;24.40;41.60;;;28.23;27.31;100676.25;5079503;28;20058;-21
2022/06/08 06:21:20;;;;;;;1.25;1.15;;;24.40;41.60;;;28.21;27.00;100678.22;5114652;28;20059;-21
2022/06/08 06:23:52;;;;;;;1.40;1.30;;;24.40;41.70;;;28.18;27.32;100670.47;5094640;28;20051;-21
2022/06/08 06:26:37;;;;;;;1.60;1.30;;;24.40;41.60;;;28.24;27.18;100686.84;5115093;28;20058;-21
2022/06/08 06:29:21;;;;;;;1.60;1.50;;;24.40;41.60;;;28.25;27.31;100677.81;5115029;28;20431;-21
2022/06/08 06:32:03;;;;;;;1.27;1.17;;;24.40;41.50;;;28.21;27.29;100667.47;5096332;28;20048;-21
2022/06/08 06:34:33;;;;;;;1.63;1.30;;;24.40;41.60;;;28.24;27.46;100669.88;5096816;28;20055;-22
2022/06/08 06:36:59;;;;;;;1.63;1.35;;;24.30;41.60;;;28.20;27.23;100665.78;5095272;28;20048;-23
2022/06/08 06:39:26;;;;;;;1.83;1.50;;;24.30;41.60;;;28.24;27.13;100680.63;5094366;28;20048;-22
2022/06/08 06:41:59;;;;;;;1.73;1.60;;;24.30;41.60;;;28.22;27.05;100678.09;5110892;28;20047;-22
2022/06/08 06:44:29;;;;;;;1.55;1.25;;;24.30;41.70;;;28.23;27.40;100679.78;5096363;28;20146;-22
2022/06/08 06:47:05;;;;;;;1.60;1.40;;;24.30;41.70;;;28.19;27.14;100674.84;5113023;28;20078;-22
2022/06/08 06:49:40;;;;;;;1.63;1.40;;;24.20;41.70;;;28.18;27.29;100675.84;5096022;28;20047;-23
2022/06/08 06:52:09;;;;;;;2.08;1.40;;;24.20;41.80;;;28.14;27.31;100674.44;5095747;28;20051;-22
2022/06/08 06:54:36;;;;;;;1.95;1.65;;;24.20;41.90;;;28.12;27.18;100677.28;5095642;28;20043;-22
2022/06/08 06:57:03;;;;;;;1.60;1.40;;;24.10;41.90;;;28.07;27.37;100674.19;5096481;28;20047;-22
2022/06/08 06:59:30;;;;;;;1.42;1.15;;;24.10;42.00;;;28.03;27.27;100681.69;5095820;28;20487;-22
2022/06/08 07:01:56;;;;;;;1.98;1.48;;;24.10;42.00;;;28.01;27.44;100682.81;5095640;28;20050;-23
2022/06/08 07:04:24;;;;;;;2.22;1.30;;;24.10;42.10;;;27.98;27.55;100692.00;5096287;28;20043;-23
2022/06/08 07:06:50;;;;;;;2.45;1.30;;;24.00;42.10;;;27.99;27.50;100698.25;5095765;28;20043;-22
2022/06/08 07:09:16;;;;;;;1.30;1.20;;;24.00;42.20;;;27.99;27.38;100688.34;5078697;28;20491;-22
2022/06/08 07:11:44;;;;;;;1.45;1.35;;;24.00;42.20;;;27.96;27.23;100703.91;5093133;28;20044;-20
2022/06/08 07:14:20;;;;;;;2.10;1.60;;;24.00;42.20;;;27.96;27.41;100703.91;5095612;28;20059;-20
2022/06/08 07:16:57;;;;;;;2.33;1.50;;;24.00;42.20;;;27.90;27.39;100686.50;5112584;28;20094;-20
2022/06/08 07:19:28;;;;;;;2.55;1.75;;;24.00;42.20;;;27.93;27.50;100696.13;5093784;28;20048;-21
2022/06/08 07:21:53;;;;;;;2.25;1.75;;;24.00;42.20;;;27.94;27.62;100703.22;5113710;28;20047;-21
2022/06/08 07:24:25;;;;;;;3.03;1.45;;;24.00;42.20;;;27.88;27.70;100696.53;5113699;28;20048;-22
2022/06/08 07:26:51;;;;;;;3.33;1.77;;;24.00;42.20;;;27.91;27.35;100701.63;5114160;28;20044;-21
2022/06/08 07:29:17;;;;;;;1.60;1.50;;;24.00;42.30;;;27.90;27.59;100697.25;5113731;28;20047;-22
2022/06/08 07:31:43;;;;;;;4.75;1.60;;;23.90;42.20;;;27.87;27.60;100693.00;5114220;28;20101;-22
2022/06/08 07:34:14;;;;;;;2.85;1.60;;;24.00;42.20;;;27.90;27.62;100691.88;5114107;28;20067;-21
2022/06/08 07:36:41;;;;;;;;;;;24.00;42.30;;;28.04;27.24;100693.28;5113819;28;20487;-22
2022/06/08 07:39:09;;;;;;;2.10;1.60;;;24.00;42.30;;;27.92;27.43;100692.59;5113400;28;19922;-21
2022/06/08 07:41:35;;;;;;;2.15;1.30;;;23.90;42.20;;;27.92;27.65;100692.59;5113803;28;20040;-21
2022/06/08 07:44:01;;;;;;;1.90;1.70;;;23.90;42.20;;;27.92;27.66;100689.91;5111621;28;20044;-21
2022/06/08 07:46:29;;;;;;;2.15;1.70;;;24.00;42.30;;;27.86;27.51;100669.81;5113484;28;20068;-21
2022/06/08 07:51:40;;;;;;;2.22;1.83;;;24.00;42.40;;;27.88;27.65;100680.41;5113200;28;20173;-21
2022/06/08 07:54:06;;;;;;;3.67;1.95;;;24.00;42.40;;;27.84;27.50;100674.50;5113330;28;20126;-21
2022/06/08 07:56:32;;;;;;;4.30;2.25;;;24.00;42.40;;;27.88;27.83;100670.53;5113026;28;20078;-21
2022/06/08 07:58:59;;;;;;;3.00;1.80;;;24.00;42.40;;;27.91;27.55;100680.13;5112986;28;20070;-21
2022/06/08 08:01:25;;;;;;;5.30;2.00;;;24.00;42.40;;;27.91;27.79;100680.13;5112993;28;20042;-21
2022/06/08 08:03:51;;;;;;;2.67;1.95;;;24.00;42.40;;;27.91;27.78;100669.38;5113098;28;20479;-21
2022/06/08 08:06:17;;;;;;;3.53;2.20;;;24.00;42.30;;;27.92;27.85;100665.72;5094838;28;20075;-21
2022/06/08 08:08:43;;;;;;;3.20;2.00;;;24.00;42.30;;;27.92;27.66;100663.03;5113013;28;20396;-20
2022/06/08 08:11:09;;;;;;;3.35;2.03;;;24.00;42.40;;;27.93;27.53;100647.78;5094719;28;20076;-21
2022/06/08 08:13:37;;;;;;;4.80;2.40;;;24.00;42.40;;;27.89;27.51;100641.81;5111542;28;20529;-21
2022/06/08 08:16:05;;;;;;;2.35;1.88;;;24.00;42.40;;;27.88;27.64;100640.97;5112847;28;20476;-21
2022/06/08 08:18:31;;;;;;;3.35;1.73;;;24.00;42.30;;;27.89;27.50;100636.44;5113106;28;20071;-21
2022/06/08 08:20:57;;;;;;;5.55;2.00;;;24.00;42.30;;;27.91;27.42;100637.13;5112680;28;20051;-21
2022/06/08 08:23:24;;;;;;;2.83;2.00;;;24.10;42.30;;;27.98;27.82;100640.13;5112469;28;20070;-21
2022/06/08 08:25:52;;;;;;;2.63;1.88;;;24.10;42.10;;;27.99;27.44;100636.44;5094819;28;20084;-21
2022/06/08 08:28:18;;;;;;;3.50;1.90;;;24.20;42.00;;;28.03;27.41;100640.53;5112495;28;20078;-24
2022/06/08 08:30:44;;;;;;;2.97;2.00;;;24.30;41.90;;;28.07;27.64;100640.09;5112726;28;20060;-21
2022/06/08 08:33:10;;;;;;;3.38;2.22;;;24.40;41.90;;;28.12;27.54;100636.09;5112882;28;20094;-21
2022/06/08 08:35:36;;;;;;;5.55;2.50;;;24.40;41.80;;;28.16;27.38;100624.91;5112651;28;20067;-21
2022/06/08 08:38:02;;;;;;;5.15;2.47;;;24.40;41.70;;;28.21;27.49;100628.00;5112459;28;20483;-21
2022/06/08 08:40:57;;;;;;;5.95;2.47;;;24.50;41.70;;;28.24;27.51;100621.50;5077181;28;20049;-21
2022/06/08 08:43:29;;;;;;;3.97;2.20;;;24.50;41.60;;;28.21;27.31;100603.81;5112286;28;20055;-21
2022/06/08 08:46:30;;;;;;;4.47;2.15;;;24.50;41.60;;;28.27;27.12;100605.06;5112553;28;20059;-21
2022/06/08 08:49:19;;;;;;;6.18;1.92;;;24.50;41.60;;;28.30;27.36;100591.31;5094713;28;20089;-22
2022/06/08 08:52:05;;;;;;;3.15;2.40;;;24.50;41.60;;;28.31;27.37;100592.16;5110164;28;20050;-23
2022/06/08 08:54:38;;;;;;;4.68;2.40;;;24.40;41.60;;;28.27;27.17;100581.69;5111067;28;20044;-21
2022/06/08 08:57:34;;;;;;;3.35;2.30;;;24.40;41.60;;;28.27;27.34;100586.25;5112336;28;20052;-19
2022/06/08 09:00:14;;;;;;;4.45;2.40;;;24.40;41.60;;;28.30;27.23;100585.09;5110810;28;20078;-22
2022/06/08 09:05:28;;;;;;;4.20;2.22;;;24.40;41.70;;;28.27;27.31;100573.63;5112394;28;20043;-20
2022/06/08 09:07:56;;;;;;;3.42;2.25;;;24.40;41.70;;;28.25;27.29;100567.56;5112639;28;20048;-22
2022/06/08 09:10:26;;;;;;;2.92;2.10;;;24.40;41.70;;;28.26;27.33;100569.25;5112257;28;20054;-22
2022/06/08 09:12:53;;;;;;;4.47;2.50;;;24.40;41.70;;;28.22;27.16;100554.44;5112004;28;20047;-22
2022/06/08 09:15:54;;;;;;;3.38;2.17;;;24.40;41.80;;;28.28;27.31;100566.41;5112018;28;20059;-24
2022/06/08 09:18:41;;;;;;;3.00;2.00;;;24.40;41.80;;;28.21;27.14;100541.97;5110974;28;20502;-20
2022/06/08 09:21:33;;;;;;;6.50;2.60;;;24.40;41.90;;;28.24;27.51;100554.28;5110337;28;20101;-20
2022/06/08 09:24:16;;;;;;;4.28;2.13;;;24.40;42.00;;;28.21;27.37;100555.41;5112055;28;20109;-20
2022/06/08 09:26:42;;;;;;;5.15;2.33;;;24.30;41.90;;;28.25;27.11;100558.63;5111829;28;20048;-20
2022/06/08 09:29:18;;;;;;;2.88;2.08;;;24.30;41.90;;;28.20;27.51;100544.81;5093634;28;20067;-20
2022/06/08 09:31:47;;;;;;;3.60;2.30;;;24.30;41.90;;;28.21;27.17;100547.34;5093440;28;20047;-21
2022/06/08 09:34:27;;;;;;;4.38;2.47;;;24.30;42.00;;;28.15;27.51;100541.72;5111981;28;20518;-21
2022/06/08 09:37:26;;;;;;;6.28;2.33;;;24.30;42.00;;;28.21;27.25;100543.81;5097042;28;20073;-21
2022/06/08 09:39:57;;;;;;;6.28;2.75;;;24.20;42.00;;;28.17;27.33;100542.44;5115239;28;20051;-21
2022/06/08 09:42:52;;;;;;;5.53;2.53;;;24.20;42.10;;;28.16;27.33;100540.75;5115667;28;20047;-22
2022/06/08 09:45:37;;;;;;;4.38;1.92;;;24.20;42.10;;;28.14;27.75;100532.00;5063376;28;20176;-21
2022/06/08 09:52:06;;;;;;;3.85;2.10;;;24.20;42.10;;;28.14;27.60;100540.06;5115644;28;20050;-21
2022/06/08 09:54:41;;;;;;;3.30;2.20;;;24.20;42.10;;;28.11;27.42;100532.28;5095148;28;20063;-21
2022/06/08 09:57:08;;;;;;;4.57;2.33;;;24.20;42.20;;;28.09;27.42;100544.03;5095457;28;20135;-21
2022/06/08 09:59:48;;;;;;;6.65;2.42;;;24.20;42.20;;;28.04;27.61;100538.25;5113253;28;20059;-21
2022/06/08 10:02:29;;;;;;;4.05;2.63;;;24.20;42.20;;;28.08;27.40;100539.66;5093663;28;20504;-21
2022/06/08 10:05:25;;;;;;;3.90;2.30;;;24.20;42.20;;;28.07;27.74;100529.88;5095020;28;20050;-21
2022/06/08 10:08:16;;;;;;;3.92;2.35;;;24.20;42.20;;;28.08;27.60;100533.41;5110431;28;20052;-25
2022/06/08 10:10:49;;;;;;;;;;;24.20;42.20;;;28.23;27.40;100528.38;5058063;28;20119;-21
2022/06/08 10:13:38;;;;;;;6.90;2.67;;;24.20;42.10;;;28.16;27.29;100532.69;5095892;28;19915;-21
2022/06/08 10:16:19;;;;;;;3.75;2.53;;;24.20;42.20;;;28.09;27.39;100517.13;5096793;28;20123;-21
2022/06/08 10:18:56;;;;;;;3.40;2.35;;;24.20;42.00;;;28.10;27.47;100523.38;5112669;28;20080;-21
2022/06/08 10:21:27;;;;;;;3.35;2.15;;;24.30;42.00;;;28.17;27.59;100527.16;5113421;28;20053;-21
2022/06/08 10:24:05;;;;;;;4.25;2.85;;;24.30;41.90;;;28.17;27.60;100520.94;5115428;28;20043;-21
2022/06/08 10:26:45;;;;;;;4.03;2.20;;;24.30;41.90;;;28.18;27.62;100525.31;5096322;28;20049;-22
2022/06/08 10:29:25;;;;;;;2.92;2.05;;;24.30;41.90;;;28.18;27.55;100511.84;5113491;28;20105;-21
2022/06/08 10:32:02;;;;;;;3.58;2.50;;;24.40;41.90;;;28.21;27.57;100512.41;5096305;28;20053;-21
2022/06/08 10:34:32;;;;;;;5.20;2.17;;;24.40;41.80;;;28.20;27.52;100501.78;5096591;28;20395;-20
2022/06/08 10:37:22;;;;;;;3.70;2.30;;;24.40;41.70;;;28.25;27.47;100507.56;5095277;28;20159;-21
2022/06/08 10:39:49;;;;;;;1.90;1.80;;;24.40;41.70;;;28.25;27.36;100503.06;5095117;28;20051;-22
2022/06/08 10:45:34;;;;;;;3.35;2.35;;;24.50;41.60;;;28.31;27.16;100511.50;5099207;28;20051;-22
2022/06/08 10:48:13;;;;;;;3.90;2.00;;;24.50;41.60;;;28.32;27.39;100499.72;5076064;28;20058;-21
2022/06/08 10:50:48;;;;;;;3.30;2.25;;;24.50;41.60;;;28.29;27.42;100498.22;5114254;28;20479;-21
2022/06/08 10:56:24;;;;;;;6.03;2.88;;;24.50;41.60;;;28.29;27.37;100506.28;5114411;28;20433;-19
2022/06/08 10:59:20;;;;;;;3.75;2.20;;;24.50;41.60;;;28.30;27.38;100497.22;5114013;28;20131;-22